sensor_id;sensor_type;location;lat;lon;timestamp;P1;durP1;ratioP1;P2;durP2;ratioP2
64060;SDS011;60147;55.036;73.242;2022-07-10T00:01:52;10.80;;;4.55;;
64060;SDS011;60147;55.036;73.242;2022-07-10T00:04:23;7.43;;;4.63;;
64060;SDS011;60147;55.036;73.242;2022-07-10T00:06:50;8.05;;;5.20;;
64060;SDS011;60147;55.036;73.242;2022-07-10T00:09:18;9.35;;;5.13;;
64060;SDS011;60147;55.036;73.242;2022-07-10T00:11:54;6.15;;;4.72;;
64060;SDS011;60147;55.036;73.242;2022-07-10T00:14:20;8.70;;;4.70;;
64060;SDS011;60147;55.036;73.242;2022-07-10T00:16:46;9.45;;;4.75;;
64060;SDS011;60147;55.036;73.242;2022-07-10T00:19:22;8.13;;;4.60;;
64060;SDS011;60147;55.036;73.242;2022-07-10T00:21:48;6.75;;;4.32;;
64060;SDS011;60147;55.036;73.242;2022-07-10T00:24:14;12.82;;;4.38;;
64060;SDS011;60147;55.036;73.242;2022-07-10T00:26:40;9.80;;;5.13;;
64060;SDS011;60147;55.036;73.242;2022-07-10T00:29:06;10.35;;;4.40;;
64060;SDS011;60147;55.036;73.242;2022-07-10T00:31:32;10.50;;;4.88;;
64060;SDS011;60147;55.036;73.242;2022-07-10T00:33:58;9.20;;;4.57;;
64060;SDS011;60147;55.036;73.242;2022-07-10T00:36:23;9.07;;;4.30;;
64060;SDS011;60147;55.036;73.242;2022-07-10T00:38:52;9.52;;;4.93;;
64060;SDS011;60147;55.036;73.242;2022-07-10T00:41:18;8.15;;;4.60;;
64060;SDS011;60147;55.036;73.242;2022-07-10T00:43:58;9.80;;;4.68;;
64060;SDS011;60147;55.036;73.242;2022-07-10T00:46:25;6.70;;;4.35;;
64060;SDS011;60147;55.036;73.242;2022-07-10T00:48:52;11.50;;;4.78;;
64060;SDS011;60147;55.036;73.242;2022-07-10T00:51:29;10.75;;;5.25;;
64060;SDS011;60147;55.036;73.242;2022-07-10T00:54:06;11.27;;;5.60;;
64060;SDS011;60147;55.036;73.242;2022-07-10T00:56:32;12.35;;;5.80;;
64060;SDS011;60147;55.036;73.242;2022-07-10T00:59:02;11.43;;;5.57;;
64060;SDS011;60147;55.036;73.242;2022-07-10T01:01:28;10.55;;;5.38;;
64060;SDS011;60147;55.036;73.242;2022-07-10T01:03:54;15.90;;;6.38;;
64060;SDS011;60147;55.036;73.242;2022-07-10T01:06:20;15.90;;;6.75;;
64060;SDS011;60147;55.036;73.242;2022-07-10T01:08:46;15.15;;;6.63;;
64060;SDS011;60147;55.036;73.242;2022-07-10T01:11:22;19.65;;;7.88;;
64060;SDS011;60147;55.036;73.242;2022-07-10T01:13:48;18.92;;;7.82;;
64060;SDS011;60147;55.036;73.242;2022-07-10T01:16:13;22.55;;;8.60;;
64060;SDS011;60147;55.036;73.242;2022-07-10T01:18:45;19.35;;;8.68;;
64060;SDS011;60147;55.036;73.242;2022-07-10T01:21:22;20.30;;;8.30;;
64060;SDS011;60147;55.036;73.242;2022-07-10T01:23:59;23.85;;;9.00;;
64060;SDS011;60147;55.036;73.242;2022-07-10T01:26:25;22.88;;;8.93;;
64060;SDS011;60147;55.036;73.242;2022-07-10T01:28:52;20.60;;;8.68;;
64060;SDS011;60147;55.036;73.242;2022-07-10T01:31:18;14.82;;;7.07;;
64060;SDS011;60147;55.036;73.242;2022-07-10T01:33:50;14.93;;;6.82;;
64060;SDS011;60147;55.036;73.242;2022-07-10T01:36:16;14.85;;;6.55;;
64060;SDS011;60147;55.036;73.242;2022-07-10T01:38:43;11.00;;;5.85;;
64060;SDS011;60147;55.036;73.242;2022-07-10T01:41:09;8.63;;;5.25;;
64060;SDS011;60147;55.036;73.242;2022-07-10T01:43:35;10.88;;;5.22;;
64060;SDS011;60147;55.036;73.242;2022-07-10T01:46:02;7.50;;;4.60;;
64060;SDS011;60147;55.036;73.242;2022-07-10T01:48:29;8.48;;;5.05;;
64060;SDS011;60147;55.036;73.242;2022-07-10T01:50:55;7.50;;;4.63;;
64060;SDS011;60147;55.036;73.242;2022-07-10T01:53:21;9.35;;;4.85;;
64060;SDS011;60147;55.036;73.242;2022-07-10T01:55:51;9.65;;;4.88;;
64060;SDS011;60147;55.036;73.242;2022-07-10T01:58:17;10.80;;;4.95;;
64060;SDS011;60147;55.036;73.242;2022-07-10T02:00:43;9.80;;;5.25;;
64060;SDS011;60147;55.036;73.242;2022-07-10T02:03:10;8.40;;;4.60;;
64060;SDS011;60147;55.036;73.242;2022-07-10T02:05:55;6.07;;;4.65;;
64060;SDS011;60147;55.036;73.242;2022-07-10T02:08:20;12.13;;;4.55;;
64060;SDS011;60147;55.036;73.242;2022-07-10T02:10:46;9.05;;;5.03;;
64060;SDS011;60147;55.036;73.242;2022-07-10T02:13:12;7.72;;;4.82;;
64060;SDS011;60147;55.036;73.242;2022-07-10T02:15:40;7.35;;;4.72;;
64060;SDS011;60147;55.036;73.242;2022-07-10T02:18:06;7.95;;;5.15;;
64060;SDS011;60147;55.036;73.242;2022-07-10T02:20:42;9.05;;;4.90;;
64060;SDS011;60147;55.036;73.242;2022-07-10T02:23:18;7.15;;;4.40;;
64060;SDS011;60147;55.036;73.242;2022-07-10T02:25:44;11.00;;;4.53;;
64060;SDS011;60147;55.036;73.242;2022-07-10T02:28:10;5.65;;;4.38;;
64060;SDS011;60147;55.036;73.242;2022-07-10T02:30:37;6.63;;;5.03;;
64060;SDS011;60147;55.036;73.242;2022-07-10T02:33:02;7.22;;;4.22;;
64060;SDS011;60147;55.036;73.242;2022-07-10T02:35:32;7.68;;;4.40;;
64060;SDS011;60147;55.036;73.242;2022-07-10T02:37:58;8.50;;;4.50;;
64060;SDS011;60147;55.036;73.242;2022-07-10T02:40:33;5.60;;;4.18;;
64060;SDS011;60147;55.036;73.242;2022-07-10T02:42:59;6.53;;;4.28;;
64060;SDS011;60147;55.036;73.242;2022-07-10T02:45:25;5.57;;;4.47;;
64060;SDS011;60147;55.036;73.242;2022-07-10T02:47:51;4.78;;;4.28;;
64060;SDS011;60147;55.036;73.242;2022-07-10T02:50:24;6.93;;;4.53;;
64060;SDS011;60147;55.036;73.242;2022-07-10T02:55:52;14.30;;;4.30;;
64060;SDS011;60147;55.036;73.242;2022-07-10T02:58:18;6.85;;;4.43;;
64060;SDS011;60147;55.036;73.242;2022-07-10T03:00:45;7.22;;;4.70;;
64060;SDS011;60147;55.036;73.242;2022-07-10T03:03:24;5.97;;;5.03;;
64060;SDS011;60147;55.036;73.242;2022-07-10T03:05:50;5.50;;;4.35;;
64060;SDS011;60147;55.036;73.242;2022-07-10T03:08:16;23.73;;;6.00;;
64060;SDS011;60147;55.036;73.242;2022-07-10T03:10:42;7.28;;;4.32;;
64060;SDS011;60147;55.036;73.242;2022-07-10T03:13:13;12.25;;;5.32;;
64060;SDS011;60147;55.036;73.242;2022-07-10T03:15:39;14.57;;;6.10;;
64060;SDS011;60147;55.036;73.242;2022-07-10T03:18:05;12.88;;;4.80;;
64060;SDS011;60147;55.036;73.242;2022-07-10T03:20:31;6.75;;;4.30;;
64060;SDS011;60147;55.036;73.242;2022-07-10T03:22:57;11.32;;;4.88;;
64060;SDS011;60147;55.036;73.242;2022-07-10T03:25:23;7.20;;;5.00;;
64060;SDS011;60147;55.036;73.242;2022-07-10T03:27:49;8.70;;;4.68;;
64060;SDS011;60147;55.036;73.242;2022-07-10T03:30:15;7.25;;;4.57;;
64060;SDS011;60147;55.036;73.242;2022-07-10T03:32:41;8.80;;;5.00;;
64060;SDS011;60147;55.036;73.242;2022-07-10T03:35:07;8.77;;;4.85;;
64060;SDS011;60147;55.036;73.242;2022-07-10T03:37:33;9.55;;;5.00;;
64060;SDS011;60147;55.036;73.242;2022-07-10T03:39:59;5.32;;;4.30;;
64060;SDS011;60147;55.036;73.242;2022-07-10T03:42:24;6.50;;;4.45;;
64060;SDS011;60147;55.036;73.242;2022-07-10T03:44:50;6.57;;;4.40;;
64060;SDS011;60147;55.036;73.242;2022-07-10T03:47:16;10.13;;;4.45;;
64060;SDS011;60147;55.036;73.242;2022-07-10T03:49:43;6.00;;;4.55;;
64060;SDS011;60147;55.036;73.242;2022-07-10T03:52:09;6.07;;;4.35;;
64060;SDS011;60147;55.036;73.242;2022-07-10T03:54:40;6.70;;;4.25;;
64060;SDS011;60147;55.036;73.242;2022-07-10T03:57:06;7.28;;;4.05;;
64060;SDS011;60147;55.036;73.242;2022-07-10T03:59:50;6.60;;;3.97;;
64060;SDS011;60147;55.036;73.242;2022-07-10T04:02:26;7.13;;;4.30;;
64060;SDS011;60147;55.036;73.242;2022-07-10T04:04:52;11.55;;;6.35;;
64060;SDS011;60147;55.036;73.242;2022-07-10T04:07:18;6.00;;;4.72;;
64060;SDS011;60147;55.036;73.242;2022-07-10T04:09:44;12.65;;;4.30;;
64060;SDS011;60147;55.036;73.242;2022-07-10T04:12:10;5.38;;;4.30;;
64060;SDS011;60147;55.036;73.242;2022-07-10T04:14:36;11.65;;;3.97;;
64060;SDS011;60147;55.036;73.242;2022-07-10T04:17:09;8.52;;;3.67;;
64060;SDS011;60147;55.036;73.242;2022-07-10T04:19:35;5.22;;;3.17;;
64060;SDS011;60147;55.036;73.242;2022-07-10T04:22:01;7.43;;;3.53;;
64060;SDS011;60147;55.036;73.242;2022-07-10T04:24:27;4.47;;;3.38;;
64060;SDS011;60147;55.036;73.242;2022-07-10T04:26:53;5.43;;;3.60;;
64060;SDS011;60147;55.036;73.242;2022-07-10T04:29:19;7.97;;;3.67;;
64060;SDS011;60147;55.036;73.242;2022-07-10T04:31:45;10.50;;;4.00;;
64060;SDS011;60147;55.036;73.242;2022-07-10T04:34:11;7.43;;;4.13;;
64060;SDS011;60147;55.036;73.242;2022-07-10T04:36:47;5.50;;;4.20;;
64060;SDS011;60147;55.036;73.242;2022-07-10T04:39:13;8.23;;;3.67;;
64060;SDS011;60147;55.036;73.242;2022-07-10T04:41:49;7.40;;;3.55;;
64060;SDS011;60147;55.036;73.242;2022-07-10T04:44:22;9.82;;;4.05;;
64060;SDS011;60147;55.036;73.242;2022-07-10T04:46:48;6.38;;;3.63;;
64060;SDS011;60147;55.036;73.242;2022-07-10T04:49:14;10.00;;;3.83;;
64060;SDS011;60147;55.036;73.242;2022-07-10T04:51:40;8.45;;;3.50;;
64060;SDS011;60147;55.036;73.242;2022-07-10T04:54:07;8.13;;;3.65;;
64060;SDS011;60147;55.036;73.242;2022-07-10T04:56:35;4.38;;;3.40;;
64060;SDS011;60147;55.036;73.242;2022-07-10T04:59:09;4.20;;;3.80;;
64060;SDS011;60147;55.036;73.242;2022-07-10T05:01:37;4.40;;;3.55;;
64060;SDS011;60147;55.036;73.242;2022-07-10T05:04:13;8.85;;;3.55;;
64060;SDS011;60147;55.036;73.242;2022-07-10T05:06:40;4.72;;;3.60;;
64060;SDS011;60147;55.036;73.242;2022-07-10T05:09:18;6.22;;;3.42;;
64060;SDS011;60147;55.036;73.242;2022-07-10T05:12:13;4.60;;;3.90;;
64060;SDS011;60147;55.036;73.242;2022-07-10T05:14:39;6.18;;;3.70;;
64060;SDS011;60147;55.036;73.242;2022-07-10T05:17:05;6.75;;;3.53;;
64060;SDS011;60147;55.036;73.242;2022-07-10T05:19:40;7.65;;;3.53;;
64060;SDS011;60147;55.036;73.242;2022-07-10T05:22:06;6.93;;;3.80;;
64060;SDS011;60147;55.036;73.242;2022-07-10T05:24:33;8.73;;;3.70;;
64060;SDS011;60147;55.036;73.242;2022-07-10T05:26:59;6.60;;;3.20;;
64060;SDS011;60147;55.036;73.242;2022-07-10T05:29:29;6.68;;;3.80;;
64060;SDS011;60147;55.036;73.242;2022-07-10T05:31:55;5.15;;;3.40;;
64060;SDS011;60147;55.036;73.242;2022-07-10T05:34:21;4.70;;;3.78;;
64060;SDS011;60147;55.036;73.242;2022-07-10T05:36:47;6.38;;;4.28;;
64060;SDS011;60147;55.036;73.242;2022-07-10T05:39:13;7.78;;;3.95;;
64060;SDS011;60147;55.036;73.242;2022-07-10T05:41:39;5.05;;;3.50;;
64060;SDS011;60147;55.036;73.242;2022-07-10T05:44:11;7.20;;;3.90;;
64060;SDS011;60147;55.036;73.242;2022-07-10T05:46:38;6.30;;;3.97;;
64060;SDS011;60147;55.036;73.242;2022-07-10T05:49:04;6.47;;;3.53;;
64060;SDS011;60147;55.036;73.242;2022-07-10T05:51:31;8.70;;;3.55;;
64060;SDS011;60147;55.036;73.242;2022-07-10T05:53:57;4.63;;;3.53;;
64060;SDS011;60147;55.036;73.242;2022-07-10T05:56:23;5.70;;;3.80;;
64060;SDS011;60147;55.036;73.242;2022-07-10T05:58:52;5.78;;;3.67;;
64060;SDS011;60147;55.036;73.242;2022-07-10T06:01:21;8.05;;;3.67;;
64060;SDS011;60147;55.036;73.242;2022-07-10T06:03:47;6.82;;;3.60;;
64060;SDS011;60147;55.036;73.242;2022-07-10T06:06:13;4.38;;;3.72;;
64060;SDS011;60147;55.036;73.242;2022-07-10T06:08:41;12.70;;;4.22;;
64060;SDS011;60147;55.036;73.242;2022-07-10T06:11:07;5.40;;;3.47;;
64060;SDS011;60147;55.036;73.242;2022-07-10T06:13:33;4.88;;;3.70;;
64060;SDS011;60147;55.036;73.242;2022-07-10T06:16:00;5.20;;;2.97;;
64060;SDS011;60147;55.036;73.242;2022-07-10T06:18:26;7.30;;;3.90;;
64060;SDS011;60147;55.036;73.242;2022-07-10T06:20:52;7.50;;;3.75;;
64060;SDS011;60147;55.036;73.242;2022-07-10T06:23:19;4.53;;;3.33;;
64060;SDS011;60147;55.036;73.242;2022-07-10T06:25:45;5.82;;;3.63;;
64060;SDS011;60147;55.036;73.242;2022-07-10T06:28:11;5.93;;;3.65;;
64060;SDS011;60147;55.036;73.242;2022-07-10T06:30:38;6.05;;;3.83;;
64060;SDS011;60147;55.036;73.242;2022-07-10T06:33:04;4.85;;;3.38;;
64060;SDS011;60147;55.036;73.242;2022-07-10T06:35:30;3.92;;;3.40;;
64060;SDS011;60147;55.036;73.242;2022-07-10T06:37:56;5.10;;;3.78;;
64060;SDS011;60147;55.036;73.242;2022-07-10T06:40:23;5.13;;;4.00;;
64060;SDS011;60147;55.036;73.242;2022-07-10T06:42:49;4.97;;;3.58;;
64060;SDS011;60147;55.036;73.242;2022-07-10T06:45:19;6.22;;;3.70;;
64060;SDS011;60147;55.036;73.242;2022-07-10T06:47:45;6.93;;;4.25;;
64060;SDS011;60147;55.036;73.242;2022-07-10T06:50:38;9.07;;;3.90;;
64060;SDS011;60147;55.036;73.242;2022-07-10T06:53:04;7.68;;;3.92;;
64060;SDS011;60147;55.036;73.242;2022-07-10T06:55:31;13.88;;;3.95;;
64060;SDS011;60147;55.036;73.242;2022-07-10T06:58:00;8.25;;;3.97;;
64060;SDS011;60147;55.036;73.242;2022-07-10T07:00:55;9.82;;;3.95;;
64060;SDS011;60147;55.036;73.242;2022-07-10T07:03:28;9.27;;;3.97;;
64060;SDS011;60147;55.036;73.242;2022-07-10T07:05:55;6.10;;;4.00;;
64060;SDS011;60147;55.036;73.242;2022-07-10T07:08:21;5.45;;;3.58;;
64060;SDS011;60147;55.036;73.242;2022-07-10T07:10:47;5.68;;;4.00;;
64060;SDS011;60147;55.036;73.242;2022-07-10T07:13:13;6.90;;;3.30;;
64060;SDS011;60147;55.036;73.242;2022-07-10T07:15:39;8.85;;;3.88;;
64060;SDS011;60147;55.036;73.242;2022-07-10T07:18:08;8.77;;;3.42;;
64060;SDS011;60147;55.036;73.242;2022-07-10T07:20:36;6.15;;;3.78;;
64060;SDS011;60147;55.036;73.242;2022-07-10T07:23:22;7.65;;;3.53;;
64060;SDS011;60147;55.036;73.242;2022-07-10T07:25:58;4.03;;;3.22;;
64060;SDS011;60147;55.036;73.242;2022-07-10T07:28:25;6.05;;;3.80;;
64060;SDS011;60147;55.036;73.242;2022-07-10T07:30:54;6.22;;;4.05;;
64060;SDS011;60147;55.036;73.242;2022-07-10T07:33:28;10.18;;;3.70;;
64060;SDS011;60147;55.036;73.242;2022-07-10T07:35:56;23.58;;;4.38;;
64060;SDS011;60147;55.036;73.242;2022-07-10T07:38:22;10.93;;;4.10;;
64060;SDS011;60147;55.036;73.242;2022-07-10T07:40:48;7.85;;;4.50;;
64060;SDS011;60147;55.036;73.242;2022-07-10T07:43:16;5.60;;;3.53;;
64060;SDS011;60147;55.036;73.242;2022-07-10T07:45:41;9.52;;;3.80;;
64060;SDS011;60147;55.036;73.242;2022-07-10T07:48:12;13.60;;;4.40;;
64060;SDS011;60147;55.036;73.242;2022-07-10T07:50:40;8.95;;;3.75;;
64060;SDS011;60147;55.036;73.242;2022-07-10T07:53:06;7.35;;;3.80;;
64060;SDS011;60147;55.036;73.242;2022-07-10T07:55:33;6.43;;;4.15;;
64060;SDS011;60147;55.036;73.242;2022-07-10T07:58:09;8.15;;;3.60;;
64060;SDS011;60147;55.036;73.242;2022-07-10T08:00:35;6.63;;;3.60;;
64060;SDS011;60147;55.036;73.242;2022-07-10T08:03:01;10.98;;;3.70;;
64060;SDS011;60147;55.036;73.242;2022-07-10T08:05:27;7.30;;;3.38;;
64060;SDS011;60147;55.036;73.242;2022-07-10T08:07:57;13.13;;;3.80;;
64060;SDS011;60147;55.036;73.242;2022-07-10T08:10:25;7.70;;;3.65;;
64060;SDS011;60147;55.036;73.242;2022-07-10T08:12:52;6.70;;;3.75;;
64060;SDS011;60147;55.036;73.242;2022-07-10T08:15:18;6.90;;;3.80;;
64060;SDS011;60147;55.036;73.242;2022-07-10T08:17:50;26.70;;;6.18;;
64060;SDS011;60147;55.036;73.242;2022-07-10T08:20:17;6.82;;;3.38;;
64060;SDS011;60147;55.036;73.242;2022-07-10T08:22:53;8.75;;;3.70;;
64060;SDS011;60147;55.036;73.242;2022-07-10T08:25:23;13.48;;;4.75;;
64060;SDS011;60147;55.036;73.242;2022-07-10T08:27:50;7.38;;;4.07;;
64060;SDS011;60147;55.036;73.242;2022-07-10T08:30:17;11.70;;;4.47;;
64060;SDS011;60147;55.036;73.242;2022-07-10T08:32:43;8.07;;;3.47;;
64060;SDS011;60147;55.036;73.242;2022-07-10T08:35:19;11.95;;;4.10;;
64060;SDS011;60147;55.036;73.242;2022-07-10T08:37:45;10.50;;;3.97;;
64060;SDS011;60147;55.036;73.242;2022-07-10T08:40:22;6.22;;;3.88;;
64060;SDS011;60147;55.036;73.242;2022-07-10T08:42:48;8.25;;;3.85;;
64060;SDS011;60147;55.036;73.242;2022-07-10T08:45:14;7.13;;;3.42;;
64060;SDS011;60147;55.036;73.242;2022-07-10T08:47:48;12.75;;;4.18;;
64060;SDS011;60147;55.036;73.242;2022-07-10T08:50:21;8.77;;;3.65;;
64060;SDS011;60147;55.036;73.242;2022-07-10T08:52:51;7.03;;;4.60;;
64060;SDS011;60147;55.036;73.242;2022-07-10T08:55:24;10.65;;;4.10;;
64060;SDS011;60147;55.036;73.242;2022-07-10T08:57:51;9.82;;;4.15;;
64060;SDS011;60147;55.036;73.242;2022-07-10T09:00:18;6.90;;;3.92;;
64060;SDS011;60147;55.036;73.242;2022-07-10T09:02:44;5.97;;;3.63;;
64060;SDS011;60147;55.036;73.242;2022-07-10T09:05:15;15.60;;;3.95;;
64060;SDS011;60147;55.036;73.242;2022-07-10T09:07:41;6.70;;;3.55;;
64060;SDS011;60147;55.036;73.242;2022-07-10T09:10:09;5.63;;;3.97;;
64060;SDS011;60147;55.036;73.242;2022-07-10T09:18:48;7.22;;;3.85;;
64060;SDS011;60147;55.036;73.242;2022-07-10T09:21:14;5.18;;;3.60;;
64060;SDS011;60147;55.036;73.242;2022-07-10T09:23:41;7.22;;;3.75;;
64060;SDS011;60147;55.036;73.242;2022-07-10T09:26:07;10.15;;;3.97;;
64060;SDS011;60147;55.036;73.242;2022-07-10T09:28:33;6.43;;;4.00;;
64060;SDS011;60147;55.036;73.242;2022-07-10T09:30:59;6.88;;;3.83;;
64060;SDS011;60147;55.036;73.242;2022-07-10T09:33:25;9.45;;;4.40;;
64060;SDS011;60147;55.036;73.242;2022-07-10T09:41:12;12.57;;;4.90;;
64060;SDS011;60147;55.036;73.242;2022-07-10T09:46:14;8.18;;;4.50;;
64060;SDS011;60147;55.036;73.242;2022-07-10T09:48:45;9.60;;;4.10;;
64060;SDS011;60147;55.036;73.242;2022-07-10T09:51:11;6.63;;;4.00;;
64060;SDS011;60147;55.036;73.242;2022-07-10T09:53:45;11.23;;;4.13;;
64060;SDS011;60147;55.036;73.242;2022-07-10T09:56:13;12.38;;;4.25;;
64060;SDS011;60147;55.036;73.242;2022-07-10T09:58:40;12.00;;;3.90;;
64060;SDS011;60147;55.036;73.242;2022-07-10T10:01:07;8.68;;;4.40;;
64060;SDS011;60147;55.036;73.242;2022-07-10T10:03:43;6.43;;;3.88;;
64060;SDS011;60147;55.036;73.242;2022-07-10T10:06:11;7.38;;;4.13;;
64060;SDS011;60147;55.036;73.242;2022-07-10T10:11:27;5.53;;;3.15;;
64060;SDS011;60147;55.036;73.242;2022-07-10T10:13:59;6.47;;;3.33;;
64060;SDS011;60147;55.036;73.242;2022-07-10T10:17:00;9.75;;;3.53;;
64060;SDS011;60147;55.036;73.242;2022-07-10T10:19:27;7.88;;;3.55;;
64060;SDS011;60147;55.036;73.242;2022-07-10T10:22:13;8.52;;;3.65;;
64060;SDS011;60147;55.036;73.242;2022-07-10T10:24:41;7.63;;;3.35;;
64060;SDS011;60147;55.036;73.242;2022-07-10T10:27:07;14.20;;;3.70;;
64060;SDS011;60147;55.036;73.242;2022-07-10T10:29:34;11.65;;;3.65;;
64060;SDS011;60147;55.036;73.242;2022-07-10T10:32:01;7.30;;;3.40;;
64060;SDS011;60147;55.036;73.242;2022-07-10T10:34:40;6.40;;;3.33;;
64060;SDS011;60147;55.036;73.242;2022-07-10T10:39:52;49.28;;;6.57;;
64060;SDS011;60147;55.036;73.242;2022-07-10T10:42:34;7.38;;;3.30;;
64060;SDS011;60147;55.036;73.242;2022-07-10T10:48:00;4.68;;;3.40;;
64060;SDS011;60147;55.036;73.242;2022-07-10T10:53:14;6.60;;;3.47;;
64060;SDS011;60147;55.036;73.242;2022-07-10T10:58:37;7.07;;;3.72;;
64060;SDS011;60147;55.036;73.242;2022-07-10T11:01:03;13.98;;;3.40;;
64060;SDS011;60147;55.036;73.242;2022-07-10T11:03:29;8.23;;;4.28;;
64060;SDS011;60147;55.036;73.242;2022-07-10T11:05:59;9.32;;;3.67;;
64060;SDS011;60147;55.036;73.242;2022-07-10T11:08:35;7.20;;;3.55;;
64060;SDS011;60147;55.036;73.242;2022-07-10T11:11:01;5.88;;;3.33;;
64060;SDS011;60147;55.036;73.242;2022-07-10T11:13:27;5.38;;;3.38;;
64060;SDS011;60147;55.036;73.242;2022-07-10T11:15:56;7.57;;;3.35;;
64060;SDS011;60147;55.036;73.242;2022-07-10T11:18:23;6.68;;;3.30;;
64060;SDS011;60147;55.036;73.242;2022-07-10T11:20:54;6.50;;;3.10;;
64060;SDS011;60147;55.036;73.242;2022-07-10T11:26:05;10.80;;;3.47;;
64060;SDS011;60147;55.036;73.242;2022-07-10T11:28:52;20.40;;;4.38;;
64060;SDS011;60147;55.036;73.242;2022-07-10T11:31:20;11.25;;;3.55;;
64060;SDS011;60147;55.036;73.242;2022-07-10T11:33:46;16.00;;;4.05;;
64060;SDS011;60147;55.036;73.242;2022-07-10T11:36:24;10.60;;;4.53;;
64060;SDS011;60147;55.036;73.242;2022-07-10T11:39:01;14.57;;;3.80;;
64060;SDS011;60147;55.036;73.242;2022-07-10T11:41:27;10.65;;;4.15;;
64060;SDS011;60147;55.036;73.242;2022-07-10T11:43:57;8.48;;;5.20;;
64060;SDS011;60147;55.036;73.242;2022-07-10T11:46:24;23.40;;;4.40;;
64060;SDS011;60147;55.036;73.242;2022-07-10T11:48:51;6.38;;;3.60;;
64060;SDS011;60147;55.036;73.242;2022-07-10T11:51:20;8.23;;;5.00;;
64060;SDS011;60147;55.036;73.242;2022-07-10T11:54:00;8.88;;;3.65;;
64060;SDS011;60147;55.036;73.242;2022-07-10T11:56:38;5.97;;;3.78;;
64060;SDS011;60147;55.036;73.242;2022-07-10T11:59:15;5.70;;;3.30;;
64060;SDS011;60147;55.036;73.242;2022-07-10T12:04:15;5.80;;;3.42;;
64060;SDS011;60147;55.036;73.242;2022-07-10T12:06:42;6.18;;;3.38;;
64060;SDS011;60147;55.036;73.242;2022-07-10T12:09:16;5.80;;;3.28;;
64060;SDS011;60147;55.036;73.242;2022-07-10T12:11:44;4.28;;;3.50;;
64060;SDS011;60147;55.036;73.242;2022-07-10T12:16:37;8.10;;;4.10;;
64060;SDS011;60147;55.036;73.242;2022-07-10T12:19:05;10.48;;;7.55;;
64060;SDS011;60147;55.036;73.242;2022-07-10T12:21:31;13.15;;;10.02;;
64060;SDS011;60147;55.036;73.242;2022-07-10T12:23:58;10.30;;;6.00;;
64060;SDS011;60147;55.036;73.242;2022-07-10T12:26:31;7.05;;;4.97;;
64060;SDS011;60147;55.036;73.242;2022-07-10T12:28:57;10.65;;;9.15;;
64060;SDS011;60147;55.036;73.242;2022-07-10T12:31:27;11.13;;;5.40;;
64060;SDS011;60147;55.036;73.242;2022-07-10T12:33:54;9.63;;;4.20;;
64060;SDS011;60147;55.036;73.242;2022-07-10T12:36:23;6.90;;;3.72;;
64060;SDS011;60147;55.036;73.242;2022-07-10T12:38:53;9.18;;;4.10;;
64060;SDS011;60147;55.036;73.242;2022-07-10T12:41:21;8.48;;;4.00;;
64060;SDS011;60147;55.036;73.242;2022-07-10T12:43:50;8.52;;;3.88;;
64060;SDS011;60147;55.036;73.242;2022-07-10T12:46:35;7.22;;;5.25;;
64060;SDS011;60147;55.036;73.242;2022-07-10T12:49:09;9.57;;;3.75;;
64060;SDS011;60147;55.036;73.242;2022-07-10T12:51:45;6.10;;;3.83;;
64060;SDS011;60147;55.036;73.242;2022-07-10T12:54:32;5.05;;;4.25;;
64060;SDS011;60147;55.036;73.242;2022-07-10T12:56:59;6.72;;;4.20;;
64060;SDS011;60147;55.036;73.242;2022-07-10T12:59:26;11.45;;;4.55;;
64060;SDS011;60147;55.036;73.242;2022-07-10T13:01:54;16.58;;;5.60;;
64060;SDS011;60147;55.036;73.242;2022-07-10T13:04:25;17.45;;;5.80;;
64060;SDS011;60147;55.036;73.242;2022-07-10T13:06:52;16.77;;;5.43;;
64060;SDS011;60147;55.036;73.242;2022-07-10T13:09:20;13.95;;;4.68;;
64060;SDS011;60147;55.036;73.242;2022-07-10T13:11:53;8.05;;;4.25;;
64060;SDS011;60147;55.036;73.242;2022-07-10T13:14:19;7.45;;;4.38;;
64060;SDS011;60147;55.036;73.242;2022-07-10T13:16:45;7.63;;;4.20;;
64060;SDS011;60147;55.036;73.242;2022-07-10T13:19:21;14.00;;;4.32;;
64060;SDS011;60147;55.036;73.242;2022-07-10T13:21:52;9.57;;;4.32;;
64060;SDS011;60147;55.036;73.242;2022-07-10T13:24:18;7.75;;;3.88;;
64060;SDS011;60147;55.036;73.242;2022-07-10T13:26:44;13.40;;;3.97;;
64060;SDS011;60147;55.036;73.242;2022-07-10T13:29:11;18.25;;;4.80;;
64060;SDS011;60147;55.036;73.242;2022-07-10T13:31:37;14.45;;;6.40;;
64060;SDS011;60147;55.036;73.242;2022-07-10T13:34:03;7.75;;;4.85;;
64060;SDS011;60147;55.036;73.242;2022-07-10T13:36:29;9.30;;;4.30;;
64060;SDS011;60147;55.036;73.242;2022-07-10T13:38:56;5.47;;;4.10;;
64060;SDS011;60147;55.036;73.242;2022-07-10T13:41:22;8.02;;;5.15;;
64060;SDS011;60147;55.036;73.242;2022-07-10T13:43:52;9.35;;;5.00;;
64060;SDS011;60147;55.036;73.242;2022-07-10T13:46:18;12.77;;;4.82;;
64060;SDS011;60147;55.036;73.242;2022-07-10T13:48:44;10.55;;;4.60;;
64060;SDS011;60147;55.036;73.242;2022-07-10T13:51:10;12.50;;;4.78;;
64060;SDS011;60147;55.036;73.242;2022-07-10T13:53:36;8.50;;;4.32;;
64060;SDS011;60147;55.036;73.242;2022-07-10T13:56:04;13.77;;;4.63;;
64060;SDS011;60147;55.036;73.242;2022-07-10T13:58:30;9.30;;;4.78;;
64060;SDS011;60147;55.036;73.242;2022-07-10T14:00:56;8.88;;;5.18;;
64060;SDS011;60147;55.036;73.242;2022-07-10T14:03:25;10.68;;;4.85;;
64060;SDS011;60147;55.036;73.242;2022-07-10T14:05:51;10.30;;;5.22;;
64060;SDS011;60147;55.036;73.242;2022-07-10T14:08:18;8.82;;;4.97;;
64060;SDS011;60147;55.036;73.242;2022-07-10T14:10:44;8.50;;;4.38;;
64060;SDS011;60147;55.036;73.242;2022-07-10T14:13:18;10.30;;;4.70;;
64060;SDS011;60147;55.036;73.242;2022-07-10T14:15:44;9.60;;;5.00;;
64060;SDS011;60147;55.036;73.242;2022-07-10T14:18:11;10.65;;;4.60;;
64060;SDS011;60147;55.036;73.242;2022-07-10T14:20:42;10.32;;;4.95;;
64060;SDS011;60147;55.036;73.242;2022-07-10T14:23:31;8.50;;;4.17;;
64060;SDS011;60147;55.036;73.242;2022-07-10T14:25:58;9.57;;;4.30;;
64060;SDS011;60147;55.036;73.242;2022-07-10T14:28:23;11.18;;;4.55;;
64060;SDS011;60147;55.036;73.242;2022-07-10T14:30:54;15.93;;;4.70;;
64060;SDS011;60147;55.036;73.242;2022-07-10T14:33:20;13.73;;;4.90;;
64060;SDS011;60147;55.036;73.242;2022-07-10T14:35:46;10.40;;;4.10;;
64060;SDS011;60147;55.036;73.242;2022-07-10T14:38:15;7.80;;;4.13;;
64060;SDS011;60147;55.036;73.242;2022-07-10T14:40:41;7.50;;;4.47;;
64060;SDS011;60147;55.036;73.242;2022-07-10T14:43:17;9.93;;;4.53;;
64060;SDS011;60147;55.036;73.242;2022-07-10T14:45:43;59.05;;;7.10;;
64060;SDS011;60147;55.036;73.242;2022-07-10T14:48:09;17.55;;;6.15;;
64060;SDS011;60147;55.036;73.242;2022-07-10T14:50:35;18.15;;;6.35;;
64060;SDS011;60147;55.036;73.242;2022-07-10T14:53:02;17.13;;;10.55;;
64060;SDS011;60147;55.036;73.242;2022-07-10T14:55:28;25.08;;;13.15;;
64060;SDS011;60147;55.036;73.242;2022-07-10T14:58:00;26.23;;;14.32;;
64060;SDS011;60147;55.036;73.242;2022-07-10T15:00:31;23.60;;;11.02;;
64060;SDS011;60147;55.036;73.242;2022-07-10T15:03:03;19.20;;;11.02;;
64060;SDS011;60147;55.036;73.242;2022-07-10T15:05:29;18.08;;;8.45;;
64060;SDS011;60147;55.036;73.242;2022-07-10T15:07:55;19.23;;;8.30;;
64060;SDS011;60147;55.036;73.242;2022-07-10T15:10:21;15.88;;;7.57;;
64060;SDS011;60147;55.036;73.242;2022-07-10T15:12:48;20.60;;;9.45;;
64060;SDS011;60147;55.036;73.242;2022-07-10T15:15:23;30.23;;;14.65;;
64060;SDS011;60147;55.036;73.242;2022-07-10T15:17:49;21.63;;;11.38;;
64060;SDS011;60147;55.036;73.242;2022-07-10T15:20:15;51.63;;;16.85;;